Mount Moornapa, Australia
Current Conditions -  °F | °C
As of 7:00 AM on Wednesday 28 Jan 2015 (Local Time) from YMAY Reporting Station
Broken Clouds Broken Clouds  
Wind Chill: 64°   Ceiling: 7700
Heat Index: 64°   Visibility: 6mi
Dew Point: 50°   Wind: 9mph
Humidity: 59%   Direction: 140°SE
Pressure: 29.91"   Gusts: NA
Location:  37.75°S, 147.13°E
Report Text: YMAY 272000Z AUTO 14008KT 9999 // SCT061 BKN077 18/10 Q1013
Loading
Personal Weather Stations






























Interactive Weather Map New forecast layout! Learn more

10-Day Weather Forecast

Advertisements
Track Severe Weather on mobile